sensor_id;sensor_type;location;lat;lon;timestamp;pressure;altitude;pressure_sealevel;temperature;humidity
69145;BME280;56251;50.324;17.574;2022-10-29T00:02:23;102467.67;;;13.56;72.68
69145;BME280;56251;50.324;17.574;2022-10-29T00:02:29;102472.22;;;13.57;72.68
69145;BME280;56251;50.324;17.574;2022-10-29T00:05:29;102469.44;;;13.68;72.25
69145;BME280;56251;50.324;17.574;2022-10-29T00:05:36;102466.47;;;13.68;72.22
69145;BME280;56251;50.324;17.574;2022-10-29T00:08:37;102467.23;;;13.73;71.68
69145;BME280;56251;50.324;17.574;2022-10-29T00:08:44;102464.59;;;13.74;71.65
69145;BME280;56251;50.324;17.574;2022-10-29T00:11:44;102468.48;;;13.78;71.50
69145;BME280;56251;50.324;17.574;2022-10-29T00:11:51;102467.28;;;13.79;71.53
69145;BME280;56251;50.324;17.574;2022-10-29T00:14:50;102472.34;;;13.89;71.49
69145;BME280;56251;50.324;17.574;2022-10-29T00:15:03;102474.20;;;13.86;71.49
69145;BME280;56251;50.324;17.574;2022-10-29T00:17:57;102469.75;;;14.03;71.40
69145;BME280;56251;50.324;17.574;2022-10-29T00:18:09;102470.12;;;14.05;71.36
69145;BME280;56251;50.324;17.574;2022-10-29T00:21:05;102462.39;;;14.12;71.36
69145;BME280;56251;50.324;17.574;2022-10-29T00:21:20;102463.69;;;14.14;71.33
69145;BME280;56251;50.324;17.574;2022-10-29T00:24:11;102465.36;;;14.20;71.07
69145;BME280;56251;50.324;17.574;2022-10-29T00:24:27;102466.75;;;14.23;71.08
69145;BME280;56251;50.324;17.574;2022-10-29T00:27:18;102464.69;;;14.23;71.31
69145;BME280;56251;50.324;17.574;2022-10-29T00:27:34;102462.34;;;14.26;71.32
69145;BME280;56251;50.324;17.574;2022-10-29T00:30:30;102465.27;;;14.29;71.49
69145;BME280;56251;50.324;17.574;2022-10-29T00:30:42;102462.72;;;14.30;71.51
69145;BME280;56251;50.324;17.574;2022-10-29T00:33:36;102462.39;;;14.34;71.43
69145;BME280;56251;50.324;17.574;2022-10-29T00:33:54;102463.16;;;14.30;71.42
69145;BME280;56251;50.324;17.574;2022-10-29T00:36:45;102463.10;;;14.31;71.17
69145;BME280;56251;50.324;17.574;2022-10-29T00:37:01;102459.36;;;14.30;71.17
69145;BME280;56251;50.324;17.574;2022-10-29T00:39:52;102459.45;;;14.13;70.98
69145;BME280;56251;50.324;17.574;2022-10-29T00:40:08;102459.86;;;14.11;70.98
69145;BME280;56251;50.324;17.574;2022-10-29T00:43:12;102459.78;;;14.09;71.30
69145;BME280;56251;50.324;17.574;2022-10-29T00:43:20;102461.85;;;14.13;71.19
69145;BME280;56251;50.324;17.574;2022-10-29T00:46:26;102460.34;;;14.21;71.03
69145;BME280;56251;50.324;17.574;2022-10-29T00:46:30;102458.79;;;14.20;71.01
69145;BME280;56251;50.324;17.574;2022-10-29T00:49:33;102462.26;;;14.16;71.44
69145;BME280;56251;50.324;17.574;2022-10-29T00:49:42;102462.85;;;14.18;71.42
69145;BME280;56251;50.324;17.574;2022-10-29T00:52:44;102463.02;;;14.22;71.43
69145;BME280;56251;50.324;17.574;2022-10-29T00:52:51;102462.82;;;14.25;71.45
69145;BME280;56251;50.324;17.574;2022-10-29T00:55:50;102463.09;;;14.16;71.56
69145;BME280;56251;50.324;17.574;2022-10-29T00:56:03;102465.88;;;14.14;71.62
69145;BME280;56251;50.324;17.574;2022-10-29T00:58:56;102463.10;;;14.28;71.87
69145;BME280;56251;50.324;17.574;2022-10-29T00:59:09;102465.14;;;14.30;71.84
69145;BME280;56251;50.324;17.574;2022-10-29T01:02:03;102448.37;;;14.43;71.87
69145;BME280;56251;50.324;17.574;2022-10-29T01:02:15;102448.28;;;14.42;71.91
69145;BME280;56251;50.324;17.574;2022-10-29T01:05:11;102447.84;;;14.41;72.28
69145;BME280;56251;50.324;17.574;2022-10-29T01:05:23;102446.22;;;14.41;72.32
69145;BME280;56251;50.324;17.574;2022-10-29T01:08:18;102458.95;;;14.30;72.81
69145;BME280;56251;50.324;17.574;2022-10-29T01:08:30;102459.55;;;14.33;72.75
69145;BME280;56251;50.324;17.574;2022-10-29T01:15:28;102447.79;;;14.51;72.11
69145;BME280;56251;50.324;17.574;2022-10-29T01:21:30;102440.30;;;14.70;71.89
69145;BME280;56251;50.324;17.574;2022-10-29T01:22:13;102435.01;;;14.68;71.91
69145;BME280;56251;50.324;17.574;2022-10-29T01:24:53;102431.62;;;14.78;71.87
69145;BME280;56251;50.324;17.574;2022-10-29T01:25:26;102434.84;;;14.78;71.85
69145;BME280;56251;50.324;17.574;2022-10-29T01:28:14;102429.69;;;14.85;71.60
69145;BME280;56251;50.324;17.574;2022-10-29T01:32:24;102435.67;;;14.23;72.65
69145;BME280;56251;50.324;17.574;2022-10-29T01:35:04;102430.97;;;14.25;72.90
69145;BME280;56251;50.324;17.574;2022-10-29T01:35:48;102430.34;;;14.23;72.81
69145;BME280;56251;50.324;17.574;2022-10-29T01:39:07;102433.40;;;14.27;72.73
69145;BME280;56251;50.324;17.574;2022-10-29T01:45:12;102427.93;;;14.36;71.99
69145;BME280;56251;50.324;17.574;2022-10-29T01:45:34;102428.38;;;14.34;71.99
69145;BME280;56251;50.324;17.574;2022-10-29T01:48:25;102423.78;;;14.26;72.05
69145;BME280;56251;50.324;17.574;2022-10-29T01:48:45;102429.87;;;14.18;72.08
69145;BME280;56251;50.324;17.574;2022-10-29T01:51:30;102425.45;;;14.19;72.23
69145;BME280;56251;50.324;17.574;2022-10-29T01:51:54;102425.57;;;14.19;72.24
69145;BME280;56251;50.324;17.574;2022-10-29T01:54:41;102427.56;;;14.07;72.31
69145;BME280;56251;50.324;17.574;2022-10-29T01:55:02;102423.52;;;14.13;72.22
69145;BME280;56251;50.324;17.574;2022-10-29T01:57:48;102423.57;;;14.14;72.07
69145;BME280;56251;50.324;17.574;2022-10-29T01:58:09;102421.86;;;14.04;72.45
69145;BME280;56251;50.324;17.574;2022-10-29T02:04:34;102423.66;;;14.12;72.39
69145;BME280;56251;50.324;17.574;2022-10-29T02:05:05;102426.48;;;14.19;72.21
69145;BME280;56251;50.324;17.574;2022-10-29T02:10:44;102433.19;;;13.98;72.74
69145;BME280;56251;50.324;17.574;2022-10-29T02:11:42;102427.17;;;14.02;72.64
69145;BME280;56251;50.324;17.574;2022-10-29T02:13:57;102433.77;;;14.08;72.61
69145;BME280;56251;50.324;17.574;2022-10-29T02:14:50;102430.73;;;14.12;72.17
69145;BME280;56251;50.324;17.574;2022-10-29T02:17:02;102431.91;;;14.15;71.68
69145;BME280;56251;50.324;17.574;2022-10-29T02:18:03;102429.04;;;14.20;71.20
69145;BME280;56251;50.324;17.574;2022-10-29T02:20:10;102425.44;;;14.30;71.23
69145;BME280;56251;50.324;17.574;2022-10-29T02:21:17;102423.03;;;14.33;71.16
69145;BME280;56251;50.324;17.574;2022-10-29T02:23:16;102417.67;;;14.39;70.32
69145;BME280;56251;50.324;17.574;2022-10-29T02:24:21;102418.34;;;14.40;70.31
69145;BME280;56251;50.324;17.574;2022-10-29T02:26:23;102422.89;;;14.45;70.21
69145;BME280;56251;50.324;17.574;2022-10-29T02:27:29;102424.13;;;14.53;70.09
69145;BME280;56251;50.324;17.574;2022-10-29T02:29:29;102418.68;;;14.65;69.69
69145;BME280;56251;50.324;17.574;2022-10-29T02:30:35;102420.05;;;14.69;69.77
69145;BME280;56251;50.324;17.574;2022-10-29T02:32:36;102424.15;;;14.58;70.36
69145;BME280;56251;50.324;17.574;2022-10-29T02:33:42;102423.94;;;14.63;70.43
69145;BME280;56251;50.324;17.574;2022-10-29T02:35:45;102426.91;;;14.75;70.37
69145;BME280;56251;50.324;17.574;2022-10-29T02:36:48;102426.66;;;14.77;70.34
69145;BME280;56251;50.324;17.574;2022-10-29T02:38:51;102430.27;;;14.72;70.55
69145;BME280;56251;50.324;17.574;2022-10-29T02:39:55;102429.27;;;14.68;70.75
69145;BME280;56251;50.324;17.574;2022-10-29T02:42:02;102432.59;;;14.74;70.41
69145;BME280;56251;50.324;17.574;2022-10-29T02:43:01;102434.84;;;14.78;70.42
69145;BME280;56251;50.324;17.574;2022-10-29T02:45:09;102445.33;;;14.69;70.44
69145;BME280;56251;50.324;17.574;2022-10-29T02:46:14;102453.92;;;14.61;70.44
69145;BME280;56251;50.324;17.574;2022-10-29T02:48:15;102456.85;;;14.44;71.28
69145;BME280;56251;50.324;17.574;2022-10-29T02:49:19;102455.23;;;14.42;71.43
69145;BME280;56251;50.324;17.574;2022-10-29T02:51:21;102459.16;;;14.50;71.30
69145;BME280;56251;50.324;17.574;2022-10-29T02:52:25;102456.48;;;14.56;71.07
69145;BME280;56251;50.324;17.574;2022-10-29T02:54:28;102456.55;;;14.61;70.87
69145;BME280;56251;50.324;17.574;2022-10-29T02:55:31;102459.36;;;14.65;70.84
69145;BME280;56251;50.324;17.574;2022-10-29T02:57:35;102461.51;;;14.69;70.92
69145;BME280;56251;50.324;17.574;2022-10-29T02:58:40;102462.13;;;14.71;70.88
69145;BME280;56251;50.324;17.574;2022-10-29T03:00:41;102451.69;;;14.78;70.73
69145;BME280;56251;50.324;17.574;2022-10-29T03:01:46;102442.92;;;14.81;70.73
69145;BME280;56251;50.324;17.574;2022-10-29T03:03:47;102444.66;;;14.85;70.56
69145;BME280;56251;50.324;17.574;2022-10-29T03:04:53;102453.45;;;14.86;70.39
69145;BME280;56251;50.324;17.574;2022-10-29T03:06:54;102463.00;;;14.19;72.21
69145;BME280;56251;50.324;17.574;2022-10-29T03:08:00;102464.58;;;14.15;72.44
69145;BME280;56251;50.324;17.574;2022-10-29T03:10:00;102470.33;;;14.07;72.75
69145;BME280;56251;50.324;17.574;2022-10-29T03:11:07;102469.48;;;14.18;72.56
69145;BME280;56251;50.324;17.574;2022-10-29T03:13:06;102472.41;;;14.36;72.00
69145;BME280;56251;50.324;17.574;2022-10-29T03:14:13;102470.58;;;14.44;71.66
69145;BME280;56251;50.324;17.574;2022-10-29T03:16:20;102462.98;;;14.57;71.09
69145;BME280;56251;50.324;17.574;2022-10-29T03:17:19;102460.40;;;14.66;71.01
69145;BME280;56251;50.324;17.574;2022-10-29T03:19:26;102463.74;;;14.70;71.02
69145;BME280;56251;50.324;17.574;2022-10-29T03:20:26;102461.90;;;14.72;70.98
69145;BME280;56251;50.324;17.574;2022-10-29T03:22:34;102457.05;;;14.82;70.75
69145;BME280;56251;50.324;17.574;2022-10-29T03:23:34;102458.25;;;14.88;70.66
69145;BME280;56251;50.324;17.574;2022-10-29T03:25:41;102461.30;;;14.94;70.67
69145;BME280;56251;50.324;17.574;2022-10-29T03:26:40;102457.52;;;14.84;70.76
69145;BME280;56251;50.324;17.574;2022-10-29T03:28:47;102455.34;;;14.35;71.99
69145;BME280;56251;50.324;17.574;2022-10-29T03:29:49;102453.34;;;14.26;72.43
69145;BME280;56251;50.324;17.574;2022-10-29T03:31:53;102446.16;;;14.41;71.92
69145;BME280;56251;50.324;17.574;2022-10-29T03:32:58;102448.77;;;14.50;71.69
69145;BME280;56251;50.324;17.574;2022-10-29T03:35:00;102455.02;;;14.66;71.33
69145;BME280;56251;50.324;17.574;2022-10-29T03:36:05;102451.28;;;14.70;71.19
69145;BME280;56251;50.324;17.574;2022-10-29T03:38:06;102449.61;;;14.78;71.00
69145;BME280;56251;50.324;17.574;2022-10-29T03:39:12;102448.09;;;14.81;70.89
69145;BME280;56251;50.324;17.574;2022-10-29T03:41:13;102440.55;;;14.88;70.79
69145;BME280;56251;50.324;17.574;2022-10-29T03:42:18;102439.66;;;14.85;70.87
69145;BME280;56251;50.324;17.574;2022-10-29T03:44:20;102444.12;;;14.87;70.92
69145;BME280;56251;50.324;17.574;2022-10-29T03:45:25;102440.11;;;14.90;70.90
69145;BME280;56251;50.324;17.574;2022-10-29T03:47:27;102434.88;;;14.92;70.75
69145;BME280;56251;50.324;17.574;2022-10-29T03:48:31;102435.28;;;14.93;70.68
69145;BME280;56251;50.324;17.574;2022-10-29T03:50:39;102427.67;;;14.95;70.59
69145;BME280;56251;50.324;17.574;2022-10-29T03:51:38;102426.44;;;15.04;70.40
69145;BME280;56251;50.324;17.574;2022-10-29T03:53:45;102423.72;;;15.05;70.30
69145;BME280;56251;50.324;17.574;2022-10-29T03:54:44;102423.02;;;14.93;70.65
69145;BME280;56251;50.324;17.574;2022-10-29T03:56:52;102422.75;;;14.72;71.07
69145;BME280;56251;50.324;17.574;2022-10-29T03:57:51;102419.69;;;14.71;71.14
69145;BME280;56251;50.324;17.574;2022-10-29T03:59:58;102422.78;;;14.76;70.99
69145;BME280;56251;50.324;17.574;2022-10-29T04:01:02;102426.60;;;14.77;70.90
69145;BME280;56251;50.324;17.574;2022-10-29T04:03:05;102423.09;;;14.81;70.65
69145;BME280;56251;50.324;17.574;2022-10-29T04:04:09;102419.49;;;14.78;70.69
69145;BME280;56251;50.324;17.574;2022-10-29T04:06:13;102417.25;;;14.78;70.66
69145;BME280;56251;50.324;17.574;2022-10-29T04:07:17;102414.06;;;14.83;70.36
69145;BME280;56251;50.324;17.574;2022-10-29T04:09:20;102420.72;;;14.88;70.24
69145;BME280;56251;50.324;17.574;2022-10-29T04:10:23;102424.83;;;14.81;70.50
69145;BME280;56251;50.324;17.574;2022-10-29T04:12:26;102427.80;;;14.69;70.75
69145;BME280;56251;50.324;17.574;2022-10-29T04:13:31;102428.98;;;14.58;71.09
69145;BME280;56251;50.324;17.574;2022-10-29T04:15:32;102426.67;;;14.44;71.59
69145;BME280;56251;50.324;17.574;2022-10-29T04:16:37;102425.09;;;14.46;71.59
69145;BME280;56251;50.324;17.574;2022-10-29T04:18:38;102422.57;;;14.48;71.75
69145;BME280;56251;50.324;17.574;2022-10-29T04:19:44;102425.12;;;14.50;71.87
69145;BME280;56251;50.324;17.574;2022-10-29T04:21:45;102424.68;;;14.52;71.90
69145;BME280;56251;50.324;17.574;2022-10-29T04:22:50;102426.43;;;14.55;71.74
69145;BME280;56251;50.324;17.574;2022-10-29T04:24:51;102426.63;;;14.54;71.78
69145;BME280;56251;50.324;17.574;2022-10-29T04:25:57;102427.37;;;14.57;71.80
69145;BME280;56251;50.324;17.574;2022-10-29T04:27:57;102431.77;;;14.54;71.91
69145;BME280;56251;50.324;17.574;2022-10-29T04:29:03;102440.67;;;14.57;71.79
69145;BME280;56251;50.324;17.574;2022-10-29T04:31:05;102440.58;;;14.45;71.78
69145;BME280;56251;50.324;17.574;2022-10-29T04:32:10;102438.04;;;14.46;71.71
69145;BME280;56251;50.324;17.574;2022-10-29T04:34:12;102441.45;;;14.54;71.31
69145;BME280;56251;50.324;17.574;2022-10-29T04:35:16;102441.53;;;14.56;71.19
69145;BME280;56251;50.324;17.574;2022-10-29T04:37:18;102443.38;;;14.58;70.95
69145;BME280;56251;50.324;17.574;2022-10-29T04:38:22;102440.95;;;14.60;70.89
69145;BME280;56251;50.324;17.574;2022-10-29T04:40:30;102438.60;;;14.60;70.91
69145;BME280;56251;50.324;17.574;2022-10-29T04:41:29;102443.63;;;14.64;70.93
69145;BME280;56251;50.324;17.574;2022-10-29T04:43:36;102452.91;;;14.18;72.37
69145;BME280;56251;50.324;17.574;2022-10-29T04:44:35;102456.30;;;14.10;72.74
69145;BME280;56251;50.324;17.574;2022-10-29T04:46:42;102457.60;;;14.20;72.44
69145;BME280;56251;50.324;17.574;2022-10-29T04:47:42;102459.29;;;14.19;72.37
69145;BME280;56251;50.324;17.574;2022-10-29T04:49:49;102465.72;;;14.18;72.32
69145;BME280;56251;50.324;17.574;2022-10-29T04:50:49;102461.46;;;14.18;72.33
69145;BME280;56251;50.324;17.574;2022-10-29T04:52:57;102467.90;;;14.30;71.91
69145;BME280;56251;50.324;17.574;2022-10-29T04:53:56;102468.16;;;14.31;71.88
69145;BME280;56251;50.324;17.574;2022-10-29T04:56:03;102466.97;;;14.35;71.62
69145;BME280;56251;50.324;17.574;2022-10-29T04:57:07;102470.52;;;14.37;71.63
69145;BME280;56251;50.324;17.574;2022-10-29T04:59:10;102465.73;;;14.49;71.11
69145;BME280;56251;50.324;17.574;2022-10-29T05:00:14;102468.21;;;14.49;71.13
69145;BME280;56251;50.324;17.574;2022-10-29T05:02:17;102465.41;;;14.54;71.09
69145;BME280;56251;50.324;17.574;2022-10-29T05:03:23;102472.42;;;14.55;71.06
69145;BME280;56251;50.324;17.574;2022-10-29T05:05:23;102471.08;;;14.59;71.12
69145;BME280;56251;50.324;17.574;2022-10-29T05:06:30;102463.49;;;14.62;71.09
69145;BME280;56251;50.324;17.574;2022-10-29T05:08:29;102474.04;;;14.67;71.02
69145;BME280;56251;50.324;17.574;2022-10-29T05:09:39;102469.42;;;14.69;70.91
69145;BME280;56251;50.324;17.574;2022-10-29T05:11:36;102472.42;;;14.68;70.93
69145;BME280;56251;50.324;17.574;2022-10-29T05:12:45;102472.83;;;14.70;70.98
69145;BME280;56251;50.324;17.574;2022-10-29T05:14:42;102476.22;;;14.76;70.77
69145;BME280;56251;50.324;17.574;2022-10-29T05:15:51;102475.76;;;14.73;70.80
69145;BME280;56251;50.324;17.574;2022-10-29T05:17:49;102480.19;;;14.51;71.50
69145;BME280;56251;50.324;17.574;2022-10-29T05:18:58;102484.47;;;14.47;71.56
69145;BME280;56251;50.324;17.574;2022-10-29T05:20:56;102479.08;;;14.47;71.41
69145;BME280;56251;50.324;17.574;2022-10-29T05:22:04;102480.19;;;14.51;71.25
69145;BME280;56251;50.324;17.574;2022-10-29T05:24:02;102468.64;;;14.54;71.21
69145;BME280;56251;50.324;17.574;2022-10-29T05:25:10;102470.69;;;14.58;71.14
69145;BME280;56251;50.324;17.574;2022-10-29T05:27:09;102471.48;;;14.54;71.23
69145;BME280;56251;50.324;17.574;2022-10-29T05:28:18;102473.40;;;14.51;71.55
69145;BME280;56251;50.324;17.574;2022-10-29T05:30:15;102481.12;;;14.60;71.50
69145;BME280;56251;50.324;17.574;2022-10-29T05:31:25;102483.44;;;14.65;71.39
69145;BME280;56251;50.324;17.574;2022-10-29T05:33:23;102479.23;;;14.66;71.29
69145;BME280;56251;50.324;17.574;2022-10-29T05:34:32;102486.07;;;14.67;71.20
69145;BME280;56251;50.324;17.574;2022-10-29T05:36:29;102479.14;;;14.61;71.21
69145;BME280;56251;50.324;17.574;2022-10-29T05:37:38;102485.48;;;14.60;71.22
69145;BME280;56251;50.324;17.574;2022-10-29T05:39:35;102488.48;;;14.60;71.03
69145;BME280;56251;50.324;17.574;2022-10-29T05:40:44;102494.38;;;14.49;71.22
69145;BME280;56251;50.324;17.574;2022-10-29T05:42:42;102488.46;;;14.40;71.52
69145;BME280;56251;50.324;17.574;2022-10-29T05:43:51;102491.43;;;14.43;71.45
69145;BME280;56251;50.324;17.574;2022-10-29T05:45:48;102493.29;;;14.46;71.43
69145;BME280;56251;50.324;17.574;2022-10-29T05:47:00;102492.34;;;14.45;71.51
69145;BME280;56251;50.324;17.574;2022-10-29T05:48:55;102489.52;;;14.44;71.52
69145;BME280;56251;50.324;17.574;2022-10-29T05:50:07;102490.45;;;14.44;71.43
69145;BME280;56251;50.324;17.574;2022-10-29T05:52:01;102495.10;;;14.37;71.62
69145;BME280;56251;50.324;17.574;2022-10-29T05:53:14;102500.91;;;14.28;72.02
69145;BME280;56251;50.324;17.574;2022-10-29T05:55:08;102505.81;;;14.25;72.30
69145;BME280;56251;50.324;17.574;2022-10-29T05:56:20;102506.62;;;14.27;72.21
69145;BME280;56251;50.324;17.574;2022-10-29T05:58:14;102508.36;;;14.30;71.97
69145;BME280;56251;50.324;17.574;2022-10-29T05:59:26;102510.05;;;14.34;71.88
69145;BME280;56251;50.324;17.574;2022-10-29T06:01:21;102505.98;;;14.38;71.78
69145;BME280;56251;50.324;17.574;2022-10-29T06:02:43;102505.16;;;14.37;71.78
69145;BME280;56251;50.324;17.574;2022-10-29T06:04:27;102502.91;;;14.42;71.75
69145;BME280;56251;50.324;17.574;2022-10-29T06:05:50;102501.17;;;14.45;71.61
69145;BME280;56251;50.324;17.574;2022-10-29T06:07:33;102504.84;;;14.45;71.56
69145;BME280;56251;50.324;17.574;2022-10-29T06:08:57;102511.90;;;14.48;71.54
69145;BME280;56251;50.324;17.574;2022-10-29T06:10:40;102515.95;;;14.49;71.50
69145;BME280;56251;50.324;17.574;2022-10-29T06:12:04;102521.98;;;14.50;71.46
69145;BME280;56251;50.324;17.574;2022-10-29T06:13:46;102523.46;;;14.49;71.42
69145;BME280;56251;50.324;17.574;2022-10-29T06:15:10;102525.98;;;14.53;71.48
69145;BME280;56251;50.324;17.574;2022-10-29T06:16:52;102538.30;;;14.59;71.49
69145;BME280;56251;50.324;17.574;2022-10-29T06:18:16;102542.86;;;14.51;71.47
69145;BME280;56251;50.324;17.574;2022-10-29T06:19:59;102542.56;;;14.55;71.46
69145;BME280;56251;50.324;17.574;2022-10-29T06:21:22;102548.18;;;14.59;71.28
69145;BME280;56251;50.324;17.574;2022-10-29T06:23:05;102548.24;;;14.56;71.32
69145;BME280;56251;50.324;17.574;2022-10-29T06:24:29;102544.20;;;14.62;71.20
69145;BME280;56251;50.324;17.574;2022-10-29T06:26:12;102538.15;;;14.66;71.07
69145;BME280;56251;50.324;17.574;2022-10-29T06:27:36;102544.73;;;14.73;71.11
69145;BME280;56251;50.324;17.574;2022-10-29T06:29:18;102551.72;;;14.70;71.34
69145;BME280;56251;50.324;17.574;2022-10-29T06:30:46;102557.59;;;14.70;71.47
69145;BME280;56251;50.324;17.574;2022-10-29T06:32:25;102560.48;;;14.74;71.54
69145;BME280;56251;50.324;17.574;2022-10-29T06:33:54;102559.51;;;14.77;71.55
69145;BME280;56251;50.324;17.574;2022-10-29T06:35:31;102562.33;;;14.86;71.30
69145;BME280;56251;50.324;17.574;2022-10-29T06:37:01;102556.97;;;14.91;71.10
69145;BME280;56251;50.324;17.574;2022-10-29T06:38:37;102554.90;;;15.01;71.03
69145;BME280;56251;50.324;17.574;2022-10-29T06:40:08;102561.56;;;15.09;70.91
69145;BME280;56251;50.324;17.574;2022-10-29T06:41:44;102563.04;;;15.12;70.97
69145;BME280;56251;50.324;17.574;2022-10-29T06:43:15;102562.44;;;15.16;70.76
69145;BME280;56251;50.324;17.574;2022-10-29T06:44:50;102561.23;;;15.19;70.76
69145;BME280;56251;50.324;17.574;2022-10-29T06:46:21;102566.62;;;15.23;70.72
69145;BME280;56251;50.324;17.574;2022-10-29T06:47:58;102567.77;;;15.33;70.86
69145;BME280;56251;50.324;17.574;2022-10-29T06:49:27;102570.52;;;15.36;71.12
69145;BME280;56251;50.324;17.574;2022-10-29T06:51:05;102569.51;;;15.45;70.58
69145;BME280;56251;50.324;17.574;2022-10-29T06:52:35;102568.45;;;15.45;70.20
69145;BME280;56251;50.324;17.574;2022-10-29T06:54:11;102572.73;;;15.54;70.07
69145;BME280;56251;50.324;17.574;2022-10-29T06:55:42;102573.42;;;15.61;69.90
69145;BME280;56251;50.324;17.574;2022-10-29T06:57:17;102575.23;;;15.67;70.23
69145;BME280;56251;50.324;17.574;2022-10-29T06:58:52;102571.36;;;15.71;69.54
69145;BME280;56251;50.324;17.574;2022-10-29T07:00:29;102577.77;;;15.77;69.53
69145;BME280;56251;50.324;17.574;2022-10-29T07:01:58;102577.87;;;15.89;69.11
69145;BME280;56251;50.324;17.574;2022-10-29T07:03:41;102571.88;;;16.00;68.81
69145;BME280;56251;50.324;17.574;2022-10-29T07:05:06;102576.71;;;16.04;68.45
69145;BME280;56251;50.324;17.574;2022-10-29T07:06:47;102576.56;;;16.13;68.59
69145;BME280;56251;50.324;17.574;2022-10-29T07:08:13;102576.48;;;16.22;68.22
69145;BME280;56251;50.324;17.574;2022-10-29T07:09:54;102581.16;;;16.33;68.11
69145;BME280;56251;50.324;17.574;2022-10-29T07:11:24;102579.06;;;16.45;67.97
69145;BME280;56251;50.324;17.574;2022-10-29T07:13:00;102574.52;;;16.64;67.77
69145;BME280;56251;50.324;17.574;2022-10-29T07:14:31;102573.74;;;16.78;67.26
69145;BME280;56251;50.324;17.574;2022-10-29T07:16:07;102578.60;;;16.95;67.15
69145;BME280;56251;50.324;17.574;2022-10-29T07:17:37;102572.78;;;17.11;66.48
69145;BME280;56251;50.324;17.574;2022-10-29T07:19:13;102572.83;;;17.18;65.87
69145;BME280;56251;50.324;17.574;2022-10-29T07:20:44;102571.25;;;17.31;65.47
69145;BME280;56251;50.324;17.574;2022-10-29T07:22:19;102571.34;;;17.40;64.63
69145;BME280;56251;50.324;17.574;2022-10-29T07:23:51;102572.59;;;17.41;64.37
69145;BME280;56251;50.324;17.574;2022-10-29T07:25:26;102575.71;;;17.52;64.44
69145;BME280;56251;50.324;17.574;2022-10-29T07:26:57;102579.10;;;17.53;64.15
69145;BME280;56251;50.324;17.574;2022-10-29T07:28:33;102582.20;;;17.52;63.79
69145;BME280;56251;50.324;17.574;2022-10-29T07:30:03;102580.62;;;17.56;64.03
69145;BME280;56251;50.324;17.574;2022-10-29T07:31:39;102577.20;;;17.55;64.16
69145;BME280;56251;50.324;17.574;2022-10-29T07:33:10;102577.13;;;17.62;64.29
69145;BME280;56251;50.324;17.574;2022-10-29T07:34:45;102578.26;;;17.70;64.46
69145;BME280;56251;50.324;17.574;2022-10-29T07:36:16;102576.55;;;17.86;63.95
69145;BME280;56251;50.324;17.574;2022-10-29T07:37:51;102573.62;;;18.01;63.33
69145;BME280;56251;50.324;17.574;2022-10-29T07:39:23;102576.54;;;18.13;63.68
69145;BME280;56251;50.324;17.574;2022-10-29T07:40:58;102579.06;;;18.16;64.29
69145;BME280;56251;50.324;17.574;2022-10-29T07:42:29;102579.97;;;18.15;63.81
69145;BME280;56251;50.324;17.574;2022-10-29T07:44:04;102576.91;;;18.32;64.08
69145;BME280;56251;50.324;17.574;2022-10-29T07:45:35;102578.93;;;18.44;63.53
69145;BME280;56251;50.324;17.574;2022-10-29T07:47:10;102575.99;;;18.59;62.78
69145;BME280;56251;50.324;17.574;2022-10-29T07:48:41;102573.98;;;18.69;61.92
69145;BME280;56251;50.324;17.574;2022-10-29T07:50:16;102580.34;;;18.77;61.77
69145;BME280;56251;50.324;17.574;2022-10-29T07:51:48;102580.62;;;18.91;61.43
69145;BME280;56251;50.324;17.574;2022-10-29T07:53:22;102581.91;;;19.14;60.76
69145;BME280;56251;50.324;17.574;2022-10-29T07:54:54;102583.88;;;19.27;61.01
69145;BME280;56251;50.324;17.574;2022-10-29T07:56:28;102579.82;;;19.37;59.78
69145;BME280;56251;50.324;17.574;2022-10-29T07:58:02;102579.99;;;19.50;59.12
69145;BME280;56251;50.324;17.574;2022-10-29T07:59:35;102579.62;;;19.63;58.97
69145;BME280;56251;50.324;17.574;2022-10-29T08:01:09;102577.86;;;19.79;58.33
69145;BME280;56251;50.324;17.574;2022-10-29T08:02:41;102581.16;;;20.02;57.64
69145;BME280;56251;50.324;17.574;2022-10-29T08:04:15;102581.97;;;20.24;56.14
69145;BME280;56251;50.324;17.574;2022-10-29T08:05:48;102583.58;;;20.40;57.51
69145;BME280;56251;50.324;17.574;2022-10-29T08:07:21;102580.25;;;20.57;56.91
69145;BME280;56251;50.324;17.574;2022-10-29T08:08:56;102582.86;;;20.75;57.25
69145;BME280;56251;50.324;17.574;2022-10-29T08:10:29;102582.96;;;20.97;57.11
69145;BME280;56251;50.324;17.574;2022-10-29T08:12:02;102581.27;;;21.14;56.32
69145;BME280;56251;50.324;17.574;2022-10-29T08:13:35;102581.23;;;21.31;54.72
69145;BME280;56251;50.324;17.574;2022-10-29T08:15:12;102582.90;;;21.48;54.98
69145;BME280;56251;50.324;17.574;2022-10-29T08:16:42;102578.21;;;21.61;53.38
69145;BME280;56251;50.324;17.574;2022-10-29T08:18:19;102579.00;;;21.79;52.10
69145;BME280;56251;50.324;17.574;2022-10-29T08:19:48;102581.75;;;21.94;52.13
69145;BME280;56251;50.324;17.574;2022-10-29T08:21:25;102583.45;;;22.03;52.17
69145;BME280;56251;50.324;17.574;2022-10-29T08:22:57;102583.45;;;22.17;52.07
69145;BME280;56251;50.324;17.574;2022-10-29T08:24:31;102579.73;;;22.32;51.92
69145;BME280;56251;50.324;17.574;2022-10-29T08:26:03;102575.37;;;22.44;51.93
69145;BME280;56251;50.324;17.574;2022-10-29T08:27:37;102575.63;;;22.61;51.43
69145;BME280;56251;50.324;17.574;2022-10-29T08:29:09;102578.80;;;22.67;50.43